sensor_id;sensor_type;location;lat;lon;timestamp;pressure;altitude;pressure_sealevel;temperature;humidity
14838;BME280;7510;59.296;18.106;2022-10-31T00:01:32;101214.19;;;11.28;54.08
14838;BME280;7510;59.296;18.106;2022-10-31T00:03:57;101218.63;;;11.23;54.07
14838;BME280;7510;59.296;18.106;2022-10-31T00:06:24;101211.78;;;11.38;53.66
14838;BME280;7510;59.296;18.106;2022-10-31T00:08:55;101223.28;;;11.81;52.90
14838;BME280;7510;59.296;18.106;2022-10-31T00:11:21;101214.50;;;11.56;53.34
14838;BME280;7510;59.296;18.106;2022-10-31T00:13:47;101214.63;;;11.43;53.76
14838;BME280;7510;59.296;18.106;2022-10-31T00:16:14;101196.78;;;11.07;54.41
14838;BME280;7510;59.296;18.106;2022-10-31T00:18:39;101212.00;;;11.19;54.81
14838;BME280;7510;59.296;18.106;2022-10-31T00:21:05;101194.13;;;11.18;55.09
14838;BME280;7510;59.296;18.106;2022-10-31T00:23:30;101197.81;;;11.59;53.61
14838;BME280;7510;59.296;18.106;2022-10-31T00:26:03;101189.75;;;11.53;53.25
14838;BME280;7510;59.296;18.106;2022-10-31T00:28:29;101176.28;;;11.46;53.11
14838;BME280;7510;59.296;18.106;2022-10-31T00:31:02;101196.00;;;11.35;53.82
14838;BME280;7510;59.296;18.106;2022-10-31T00:33:28;101198.19;;;11.09;54.43
14838;BME280;7510;59.296;18.106;2022-10-31T00:35:54;101167.91;;;10.83;54.71
14838;BME280;7510;59.296;18.106;2022-10-31T00:38:20;101207.59;;;11.07;54.67
14838;BME280;7510;59.296;18.106;2022-10-31T00:40:45;101204.88;;;11.24;54.37
14838;BME280;7510;59.296;18.106;2022-10-31T00:43:11;101196.88;;;11.47;53.74
14838;BME280;7510;59.296;18.106;2022-10-31T00:45:37;101180.97;;;11.39;53.22
14838;BME280;7510;59.296;18.106;2022-10-31T00:48:02;101208.75;;;11.46;53.77
14838;BME280;7510;59.296;18.106;2022-10-31T00:50:28;101188.19;;;11.27;53.80
14838;BME280;7510;59.296;18.106;2022-10-31T00:52:53;101209.06;;;11.20;54.34
14838;BME280;7510;59.296;18.106;2022-10-31T00:55:18;101209.00;;;11.27;54.25
14838;BME280;7510;59.296;18.106;2022-10-31T00:57:47;101198.44;;;11.08;54.70
14838;BME280;7510;59.296;18.106;2022-10-31T01:00:13;101188.72;;;11.18;54.46
14838;BME280;7510;59.296;18.106;2022-10-31T01:02:39;101203.81;;;11.25;54.36
14838;BME280;7510;59.296;18.106;2022-10-31T01:05:04;101198.41;;;11.25;54.33
14838;BME280;7510;59.296;18.106;2022-10-31T01:07:30;101202.31;;;11.29;54.75
14838;BME280;7510;59.296;18.106;2022-10-31T01:09:55;101201.53;;;11.40;55.20
14838;BME280;7510;59.296;18.106;2022-10-31T01:12:21;101194.03;;;11.60;55.21
14838;BME280;7510;59.296;18.106;2022-10-31T01:14:46;101157.09;;;11.48;54.40
14838;BME280;7510;59.296;18.106;2022-10-31T01:17:13;101195.16;;;11.82;53.62
14838;BME280;7510;59.296;18.106;2022-10-31T01:19:38;101197.69;;;11.95;53.70
14838;BME280;7510;59.296;18.106;2022-10-31T01:22:04;101193.47;;;11.99;53.95
14838;BME280;7510;59.296;18.106;2022-10-31T01:24:29;101190.91;;;11.75;54.97
14838;BME280;7510;59.296;18.106;2022-10-31T01:26:55;101192.78;;;11.74;54.99
14838;BME280;7510;59.296;18.106;2022-10-31T01:29:20;101176.88;;;11.48;55.09
14838;BME280;7510;59.296;18.106;2022-10-31T01:31:45;101167.50;;;11.80;54.86
14838;BME280;7510;59.296;18.106;2022-10-31T01:34:16;101192.13;;;12.31;55.13
14838;BME280;7510;59.296;18.106;2022-10-31T01:36:44;101155.34;;;12.35;54.74
14838;BME280;7510;59.296;18.106;2022-10-31T01:39:14;101179.50;;;12.59;55.19
14838;BME280;7510;59.296;18.106;2022-10-31T01:41:48;101142.75;;;12.29;55.56
14838;BME280;7510;59.296;18.106;2022-10-31T01:47:06;101168.28;;;12.33;53.17
14838;BME280;7510;59.296;18.106;2022-10-31T01:49:40;101178.22;;;12.39;54.32
14838;BME280;7510;59.296;18.106;2022-10-31T01:54:41;101158.75;;;12.65;52.77
14838;BME280;7510;59.296;18.106;2022-10-31T01:57:10;101176.69;;;12.66;54.01
14838;BME280;7510;59.296;18.106;2022-10-31T01:59:42;101184.13;;;12.59;54.49
14838;BME280;7510;59.296;18.106;2022-10-31T02:02:11;101178.94;;;12.46;55.45
14838;BME280;7510;59.296;18.106;2022-10-31T02:04:38;101190.97;;;12.50;56.11
14838;BME280;7510;59.296;18.106;2022-10-31T02:07:20;101180.13;;;12.50;55.93
14838;BME280;7510;59.296;18.106;2022-10-31T02:09:47;101188.84;;;12.52;55.82
14838;BME280;7510;59.296;18.106;2022-10-31T02:12:15;101194.97;;;12.59;56.05
14838;BME280;7510;59.296;18.106;2022-10-31T02:14:41;101175.03;;;12.65;55.72
14838;BME280;7510;59.296;18.106;2022-10-31T02:17:07;101187.88;;;12.69;55.94
14838;BME280;7510;59.296;18.106;2022-10-31T02:33:27;101190.47;;;12.53;56.56
14838;BME280;7510;59.296;18.106;2022-10-31T02:36:43;101184.84;;;12.54;55.67
14838;BME280;7510;59.296;18.106;2022-10-31T02:39:04;101189.53;;;12.59;56.03
14838;BME280;7510;59.296;18.106;2022-10-31T02:46:54;101184.94;;;12.82;55.51
14838;BME280;7510;59.296;18.106;2022-10-31T02:51:50;101190.28;;;12.89;56.59
14838;BME280;7510;59.296;18.106;2022-10-31T02:54:25;101199.91;;;12.85;56.90
14838;BME280;7510;59.296;18.106;2022-10-31T02:56:58;101185.28;;;12.86;56.02
14838;BME280;7510;59.296;18.106;2022-10-31T02:59:26;101187.28;;;13.13;55.94
14838;BME280;7510;59.296;18.106;2022-10-31T03:02:17;101200.47;;;13.21;56.12
14838;BME280;7510;59.296;18.106;2022-10-31T03:07:55;101167.31;;;13.30;55.57
14838;BME280;7510;59.296;18.106;2022-10-31T03:10:34;101196.16;;;13.48;55.97
14838;BME280;7510;59.296;18.106;2022-10-31T03:21:15;101194.69;;;13.17;57.70
14838;BME280;7510;59.296;18.106;2022-10-31T03:23:44;101197.03;;;13.25;56.96
14838;BME280;7510;59.296;18.106;2022-10-31T03:26:12;101137.75;;;12.95;56.71
14838;BME280;7510;59.296;18.106;2022-10-31T03:28:59;101192.19;;;13.39;56.35
14838;BME280;7510;59.296;18.106;2022-10-31T03:31:30;101198.50;;;13.44;56.62
14838;BME280;7510;59.296;18.106;2022-10-31T03:33:59;101206.38;;;13.57;56.47
14838;BME280;7510;59.296;18.106;2022-10-31T03:36:27;101195.31;;;14.03;55.35
14838;BME280;7510;59.296;18.106;2022-10-31T03:38:56;101192.09;;;14.34;54.56
14838;BME280;7510;59.296;18.106;2022-10-31T03:41:25;101198.00;;;14.31;54.88
14838;BME280;7510;59.296;18.106;2022-10-31T03:44:00;101195.31;;;14.03;56.05
14838;BME280;7510;59.296;18.106;2022-10-31T03:46:28;101199.44;;;14.05;56.17
14838;BME280;7510;59.296;18.106;2022-10-31T03:48:54;101193.97;;;14.17;55.18
14838;BME280;7510;59.296;18.106;2022-10-31T03:54:02;101181.34;;;14.11;55.44
14838;BME280;7510;59.296;18.106;2022-10-31T03:56:37;101193.31;;;14.26;56.12
14838;BME280;7510;59.296;18.106;2022-10-31T03:59:10;101183.97;;;14.72;55.96
14838;BME280;7510;59.296;18.106;2022-10-31T04:01:41;101170.81;;;14.47;57.70
14838;BME280;7510;59.296;18.106;2022-10-31T04:04:09;101173.13;;;14.55;57.87
14838;BME280;7510;59.296;18.106;2022-10-31T04:06:36;101153.19;;;14.50;58.62
14838;BME280;7510;59.296;18.106;2022-10-31T04:09:05;101151.19;;;14.62;59.45
14838;BME280;7510;59.296;18.106;2022-10-31T04:11:35;101179.00;;;14.85;59.75
14838;BME280;7510;59.296;18.106;2022-10-31T04:14:03;101178.97;;;15.01;60.11
14838;BME280;7510;59.296;18.106;2022-10-31T04:16:30;101173.91;;;15.26;59.94
14838;BME280;7510;59.296;18.106;2022-10-31T04:18:55;101173.06;;;15.47;59.54
14838;BME280;7510;59.296;18.106;2022-10-31T04:21:27;101162.84;;;15.59;59.02
14838;BME280;7510;59.296;18.106;2022-10-31T04:23:54;101167.63;;;15.47;59.94
14838;BME280;7510;59.296;18.106;2022-10-31T04:26:19;101159.44;;;15.26;60.58
14838;BME280;7510;59.296;18.106;2022-10-31T04:28:45;101161.69;;;15.12;61.43
14838;BME280;7510;59.296;18.106;2022-10-31T04:31:11;101164.69;;;15.54;60.13
14838;BME280;7510;59.296;18.106;2022-10-31T04:33:37;101150.34;;;15.63;59.95
14838;BME280;7510;59.296;18.106;2022-10-31T04:36:03;101141.88;;;15.86;58.97
14838;BME280;7510;59.296;18.106;2022-10-31T04:38:29;101158.44;;;16.11;58.14
14838;BME280;7510;59.296;18.106;2022-10-31T04:40:55;101157.97;;;15.61;60.41
14838;BME280;7510;59.296;18.106;2022-10-31T04:43:20;101131.41;;;15.25;61.06
14838;BME280;7510;59.296;18.106;2022-10-31T04:45:46;101144.31;;;15.56;60.59
14838;BME280;7510;59.296;18.106;2022-10-31T04:48:11;101132.41;;;16.25;58.33
14838;BME280;7510;59.296;18.106;2022-10-31T04:50:37;101117.31;;;16.12;58.48
14838;BME280;7510;59.296;18.106;2022-10-31T04:53:02;101148.31;;;16.33;58.25
14838;BME280;7510;59.296;18.106;2022-10-31T04:55:28;101149.09;;;16.64;57.73
14838;BME280;7510;59.296;18.106;2022-10-31T04:57:53;101145.22;;;16.60;57.82
14838;BME280;7510;59.296;18.106;2022-10-31T05:00:20;101149.28;;;16.22;59.22
14838;BME280;7510;59.296;18.106;2022-10-31T05:02:53;101145.97;;;16.20;59.55
14838;BME280;7510;59.296;18.106;2022-10-31T05:05:22;101145.00;;;15.99;61.06
14838;BME280;7510;59.296;18.106;2022-10-31T05:07:48;101140.59;;;16.25;60.51
14838;BME280;7510;59.296;18.106;2022-10-31T05:10:17;101112.50;;;15.93;61.40
14838;BME280;7510;59.296;18.106;2022-10-31T05:12:51;101142.72;;;16.18;61.76
14838;BME280;7510;59.296;18.106;2022-10-31T05:15:18;101138.53;;;15.79;63.83
14838;BME280;7510;59.296;18.106;2022-10-31T05:17:44;101143.94;;;16.32;61.68
14838;BME280;7510;59.296;18.106;2022-10-31T05:20:11;101128.53;;;16.16;62.86
14838;BME280;7510;59.296;18.106;2022-10-31T05:22:45;101142.22;;;16.26;62.31
14838;BME280;7510;59.296;18.106;2022-10-31T05:25:11;101138.00;;;15.56;65.26
14838;BME280;7510;59.296;18.106;2022-10-31T05:27:46;101150.09;;;15.91;64.88
14838;BME280;7510;59.296;18.106;2022-10-31T05:30:14;101140.69;;;16.03;65.07
14838;BME280;7510;59.296;18.106;2022-10-31T05:32:44;101138.00;;;16.08;65.32
14838;BME280;7510;59.296;18.106;2022-10-31T05:35:15;101145.88;;;15.52;67.85
14838;BME280;7510;59.296;18.106;2022-10-31T05:37:41;101123.69;;;15.65;67.10
14838;BME280;7510;59.296;18.106;2022-10-31T05:40:08;101139.88;;;15.76;67.78
14838;BME280;7510;59.296;18.106;2022-10-31T05:42:35;101112.78;;;15.96;66.86
14838;BME280;7510;59.296;18.106;2022-10-31T05:45:00;101120.16;;;16.63;64.28
14838;BME280;7510;59.296;18.106;2022-10-31T05:47:27;101132.56;;;15.82;68.48
14838;BME280;7510;59.296;18.106;2022-10-31T05:49:52;101123.56;;;16.13;67.60
14838;BME280;7510;59.296;18.106;2022-10-31T05:52:18;101126.56;;;16.43;66.05
14838;BME280;7510;59.296;18.106;2022-10-31T05:54:44;101132.50;;;16.35;66.65
14838;BME280;7510;59.296;18.106;2022-10-31T05:57:09;101116.03;;;16.25;66.65
14838;BME280;7510;59.296;18.106;2022-10-31T05:59:35;101132.59;;;16.45;66.80
14838;BME280;7510;59.296;18.106;2022-10-31T06:02:00;101138.81;;;16.09;67.62
14838;BME280;7510;59.296;18.106;2022-10-31T06:04:26;101138.69;;;15.67;69.64
14838;BME280;7510;59.296;18.106;2022-10-31T06:06:51;101142.09;;;16.11;68.64
14838;BME280;7510;59.296;18.106;2022-10-31T06:09:17;101148.22;;;15.65;70.16
14838;BME280;7510;59.296;18.106;2022-10-31T06:11:42;101143.47;;;15.82;70.49
14838;BME280;7510;59.296;18.106;2022-10-31T06:14:08;101143.81;;;16.22;68.36
14838;BME280;7510;59.296;18.106;2022-10-31T06:16:33;101134.69;;;15.49;71.41
14838;BME280;7510;59.296;18.106;2022-10-31T06:18:59;101128.91;;;16.65;66.59
14838;BME280;7510;59.296;18.106;2022-10-31T06:21:24;101137.19;;;16.08;69.80
14838;BME280;7510;59.296;18.106;2022-10-31T06:23:50;101136.75;;;17.03;65.51
14838;BME280;7510;59.296;18.106;2022-10-31T06:26:15;101133.13;;;16.88;66.72
14838;BME280;7510;59.296;18.106;2022-10-31T06:28:41;101110.13;;;16.33;67.37
14838;BME280;7510;59.296;18.106;2022-10-31T06:31:06;101143.88;;;17.04;66.23
14838;BME280;7510;59.296;18.106;2022-10-31T06:33:33;101161.53;;;17.38;64.84
14838;BME280;7510;59.296;18.106;2022-10-31T06:35:59;101150.78;;;17.22;65.21
14838;BME280;7510;59.296;18.106;2022-10-31T06:38:28;101152.09;;;17.75;63.57
14838;BME280;7510;59.296;18.106;2022-10-31T06:40:54;101136.13;;;17.47;64.30
14838;BME280;7510;59.296;18.106;2022-10-31T06:43:20;101130.50;;;17.89;62.84
14838;BME280;7510;59.296;18.106;2022-10-31T06:45:47;101137.50;;;17.40;64.68
14838;BME280;7510;59.296;18.106;2022-10-31T06:48:12;101136.53;;;18.06;62.28
14838;BME280;7510;59.296;18.106;2022-10-31T06:50:38;101149.63;;;17.84;63.64
14838;BME280;7510;59.296;18.106;2022-10-31T06:53:03;101154.84;;;18.20;62.57
14838;BME280;7510;59.296;18.106;2022-10-31T06:55:29;101152.88;;;17.76;63.79
14838;BME280;7510;59.296;18.106;2022-10-31T06:57:56;101145.84;;;18.00;63.30
14838;BME280;7510;59.296;18.106;2022-10-31T07:00:22;101147.94;;;17.63;65.02
14838;BME280;7510;59.296;18.106;2022-10-31T07:03:03;101146.94;;;18.09;63.30
14838;BME280;7510;59.296;18.106;2022-10-31T07:05:29;101154.00;;;17.80;64.42
14838;BME280;7510;59.296;18.106;2022-10-31T07:07:59;101097.56;;;17.29;65.04
14838;BME280;7510;59.296;18.106;2022-10-31T07:10:27;101130.78;;;18.02;63.58
14838;BME280;7510;59.296;18.106;2022-10-31T07:12:55;101149.63;;;17.94;64.26
14838;BME280;7510;59.296;18.106;2022-10-31T07:15:21;101162.69;;;17.62;65.95
14838;BME280;7510;59.296;18.106;2022-10-31T07:17:47;101145.28;;;18.18;63.72
14838;BME280;7510;59.296;18.106;2022-10-31T07:20:12;101162.84;;;18.51;62.65
14838;BME280;7510;59.296;18.106;2022-10-31T07:22:38;101157.91;;;18.48;62.66
14838;BME280;7510;59.296;18.106;2022-10-31T07:25:04;101167.22;;;18.42;62.89
14838;BME280;7510;59.296;18.106;2022-10-31T07:27:38;101137.97;;;17.27;67.03
14838;BME280;7510;59.296;18.106;2022-10-31T07:30:05;101109.66;;;17.58;65.53
14838;BME280;7510;59.296;18.106;2022-10-31T07:32:44;101157.31;;;17.92;65.57
14838;BME280;7510;59.296;18.106;2022-10-31T07:35:11;101163.03;;;17.75;66.20
14838;BME280;7510;59.296;18.106;2022-10-31T07:37:37;101169.66;;;18.49;63.97
14838;BME280;7510;59.296;18.106;2022-10-31T07:40:03;101165.78;;;18.80;62.16
14838;BME280;7510;59.296;18.106;2022-10-31T07:42:34;101152.41;;;18.19;64.01
14838;BME280;7510;59.296;18.106;2022-10-31T07:45:00;101161.97;;;18.01;65.65
14838;BME280;7510;59.296;18.106;2022-10-31T07:47:25;101156.22;;;18.08;65.35
14838;BME280;7510;59.296;18.106;2022-10-31T07:49:51;101163.34;;;17.99;66.18
14838;BME280;7510;59.296;18.106;2022-10-31T07:52:16;101155.69;;;18.21;64.65
14838;BME280;7510;59.296;18.106;2022-10-31T07:54:42;101163.13;;;18.35;64.50
14838;BME280;7510;59.296;18.106;2022-10-31T07:57:07;101170.44;;;18.84;63.09
14838;BME280;7510;59.296;18.106;2022-10-31T07:59:33;101171.00;;;18.76;63.26
14838;BME280;7510;59.296;18.106;2022-10-31T08:01:58;101159.53;;;18.34;64.63
14838;BME280;7510;59.296;18.106;2022-10-31T08:04:23;101150.53;;;18.24;65.27
14838;BME280;7510;59.296;18.106;2022-10-31T08:06:49;101124.47;;;18.71;63.14
14838;BME280;7510;59.296;18.106;2022-10-31T08:09:14;101148.34;;;18.46;63.84
14838;BME280;7510;59.296;18.106;2022-10-31T08:11:40;101156.53;;;18.51;64.18
14838;BME280;7510;59.296;18.106;2022-10-31T08:14:05;101161.56;;;19.27;61.61
14838;BME280;7510;59.296;18.106;2022-10-31T08:16:31;101143.63;;;18.76;62.55
14838;BME280;7510;59.296;18.106;2022-10-31T08:18:56;101172.63;;;18.87;62.91
14838;BME280;7510;59.296;18.106;2022-10-31T08:21:22;101149.66;;;18.83;63.02
14838;BME280;7510;59.296;18.106;2022-10-31T08:23:47;101170.28;;;19.44;61.43
14838;BME280;7510;59.296;18.106;2022-10-31T08:26:13;101177.63;;;19.53;61.03
14838;BME280;7510;59.296;18.106;2022-10-31T08:28:40;101178.66;;;18.84;63.03
14838;BME280;7510;59.296;18.106;2022-10-31T08:31:05;101167.22;;;18.62;64.32
14838;BME280;7510;59.296;18.106;2022-10-31T08:33:31;101169.59;;;18.94;63.46
14838;BME280;7510;59.296;18.106;2022-10-31T08:35:58;101158.28;;;19.30;62.29
14838;BME280;7510;59.296;18.106;2022-10-31T08:38:23;101154.94;;;19.43;61.80
14838;BME280;7510;59.296;18.106;2022-10-31T08:40:49;101159.97;;;19.06;62.64
14838;BME280;7510;59.296;18.106;2022-10-31T08:43:16;101159.94;;;19.26;62.59
14838;BME280;7510;59.296;18.106;2022-10-31T08:45:42;101166.91;;;19.57;61.56
14838;BME280;7510;59.296;18.106;2022-10-31T08:48:16;101152.28;;;19.18;62.61
14838;BME280;7510;59.296;18.106;2022-10-31T08:50:43;101167.03;;;19.27;62.72
14838;BME280;7510;59.296;18.106;2022-10-31T08:53:17;101170.38;;;19.09;62.96
14838;BME280;7510;59.296;18.106;2022-10-31T08:55:44;101163.81;;;19.20;62.77
14838;BME280;7510;59.296;18.106;2022-10-31T08:58:14;101170.13;;;19.06;63.67
14838;BME280;7510;59.296;18.106;2022-10-31T09:00:41;101165.31;;;19.51;62.25
14838;BME280;7510;59.296;18.106;2022-10-31T09:03:13;101148.34;;;19.44;61.90
14838;BME280;7510;59.296;18.106;2022-10-31T09:05:39;101170.34;;;19.29;62.95
14838;BME280;7510;59.296;18.106;2022-10-31T09:08:06;101158.44;;;19.58;61.77
14838;BME280;7510;59.296;18.106;2022-10-31T09:10:33;101165.41;;;19.26;63.75
14838;BME280;7510;59.296;18.106;2022-10-31T09:13:04;101162.88;;;19.44;62.63
14838;BME280;7510;59.296;18.106;2022-10-31T09:15:32;101168.84;;;19.56;62.42
14838;BME280;7510;59.296;18.106;2022-10-31T09:17:58;101162.50;;;19.61;62.02
14838;BME280;7510;59.296;18.106;2022-10-31T09:20:23;101165.75;;;19.73;61.88
14838;BME280;7510;59.296;18.106;2022-10-31T09:22:58;101144.53;;;19.40;62.55
14838;BME280;7510;59.296;18.106;2022-10-31T09:25:25;101172.66;;;19.60;62.33
14838;BME280;7510;59.296;18.106;2022-10-31T09:27:50;101171.41;;;19.38;63.43
14838;BME280;7510;59.296;18.106;2022-10-31T09:30:16;101165.31;;;19.51;62.62
14838;BME280;7510;59.296;18.106;2022-10-31T09:32:41;101118.41;;;18.89;63.99
14838;BME280;7510;59.296;18.106;2022-10-31T09:35:07;101186.16;;;20.38;60.71
14838;BME280;7510;59.296;18.106;2022-10-31T09:37:33;101186.25;;;20.90;58.71
14838;BME280;7510;59.296;18.106;2022-10-31T09:39:58;101174.91;;;20.68;59.10
14838;BME280;7510;59.296;18.106;2022-10-31T09:45:12;101153.38;;;20.80;58.23
14838;BME280;7510;59.296;18.106;2022-10-31T09:50:21;101162.06;;;20.30;59.38
14838;BME280;7510;59.296;18.106;2022-10-31T09:53:02;101164.88;;;20.25;60.44
14838;BME280;7510;59.296;18.106;2022-10-31T09:58:02;101177.09;;;20.99;58.45
14838;BME280;7510;59.296;18.106;2022-10-31T10:00:28;101185.63;;;20.98;58.62
14838;BME280;7510;59.296;18.106;2022-10-31T10:05:46;101173.38;;;21.14;57.92
14838;BME280;7510;59.296;18.106;2022-10-31T10:08:18;101179.84;;;21.23;57.66
14838;BME280;7510;59.296;18.106;2022-10-31T10:22:00;101160.03;;;20.74;59.28
14838;BME280;7510;59.296;18.106;2022-10-31T10:29:39;101162.16;;;21.29;57.76
14838;BME280;7510;59.296;18.106;2022-10-31T10:32:12;101157.56;;;21.01;58.95
14838;BME280;7510;59.296;18.106;2022-10-31T10:34:51;101150.06;;;21.53;57.40
14838;BME280;7510;59.296;18.106;2022-10-31T10:39:47;101160.41;;;22.16;55.61
14838;BME280;7510;59.296;18.106;2022-10-31T10:42:15;101161.00;;;22.13;55.47
14838;BME280;7510;59.296;18.106;2022-10-31T10:45:00;101165.34;;;21.83;56.20
14838;BME280;7510;59.296;18.106;2022-10-31T10:47:58;101169.19;;;21.82;56.23
14838;BME280;7510;59.296;18.106;2022-10-31T10:50:34;101168.91;;;21.65;57.10
14838;BME280;7510;59.296;18.106;2022-10-31T10:53:36;101172.88;;;21.54;57.62
14838;BME280;7510;59.296;18.106;2022-10-31T10:56:11;101167.06;;;21.55;57.59
14838;BME280;7510;59.296;18.106;2022-10-31T10:58:41;101172.28;;;21.10;58.89
14838;BME280;7510;59.296;18.106;2022-10-31T11:01:14;101170.28;;;21.39;58.97
14838;BME280;7510;59.296;18.106;2022-10-31T11:03:41;101169.09;;;21.03;59.35
14838;BME280;7510;59.296;18.106;2022-10-31T11:06:18;101166.25;;;21.08;59.50
14838;BME280;7510;59.296;18.106;2022-10-31T11:08:48;101113.91;;;21.18;58.31
14838;BME280;7510;59.296;18.106;2022-10-31T11:13:45;101165.78;;;21.71;57.66
14838;BME280;7510;59.296;18.106;2022-10-31T11:16:14;101166.78;;;21.10;59.57
14838;BME280;7510;59.296;18.106;2022-10-31T11:18:45;101181.84;;;21.83;57.92
14838;BME280;7510;59.296;18.106;2022-10-31T11:21:27;101184.25;;;22.07;56.90
14838;BME280;7510;59.296;18.106;2022-10-31T11:26:36;101179.16;;;21.54;58.66
14838;BME280;7510;59.296;18.106;2022-10-31T11:29:04;101168.69;;;21.38;59.04
14838;BME280;7510;59.296;18.106;2022-10-31T11:31:32;101163.69;;;21.40;58.97
14838;BME280;7510;59.296;18.106;2022-10-31T11:34:04;101173.44;;;21.51;58.66
14838;BME280;7510;59.296;18.106;2022-10-31T11:36:33;101184.28;;;21.66;58.04
14838;BME280;7510;59.296;18.106;2022-10-31T11:39:03;101170.41;;;21.76;57.43
14838;BME280;7510;59.296;18.106;2022-10-31T11:41:37;101180.66;;;22.25;56.39
14838;BME280;7510;59.296;18.106;2022-10-31T11:46:41;101176.06;;;22.39;55.89
14838;BME280;7510;59.296;18.106;2022-10-31T11:51:53;101171.44;;;21.98;56.89
14838;BME280;7510;59.296;18.106;2022-10-31T11:54:23;101172.44;;;22.57;55.08
14838;BME280;7510;59.296;18.106;2022-10-31T11:56:51;101172.25;;;22.67;55.23
14838;BME280;7510;59.296;18.106;2022-10-31T11:59:27;101175.22;;;21.83;56.99
14838;BME280;7510;59.296;18.106;2022-10-31T12:01:54;101173.44;;;21.56;58.52
14838;BME280;7510;59.296;18.106;2022-10-31T12:04:28;101169.41;;;22.40;55.96
14838;BME280;7510;59.296;18.106;2022-10-31T12:06:55;101165.97;;;22.93;54.53
14838;BME280;7510;59.296;18.106;2022-10-31T12:09:23;101165.34;;;22.83;54.53
14838;BME280;7510;59.296;18.106;2022-10-31T12:17:44;101138.63;;;22.97;53.91
14838;BME280;7510;59.296;18.106;2022-10-31T12:20:20;101145.72;;;22.71;54.75
14838;BME280;7510;59.296;18.106;2022-10-31T12:25:44;101150.28;;;23.07;53.51
14838;BME280;7510;59.296;18.106;2022-10-31T12:39:48;101160.03;;;22.86;54.19
14838;BME280;7510;59.296;18.106;2022-10-31T12:58:33;101151.28;;;22.98;54.30
14838;BME280;7510;59.296;18.106;2022-10-31T13:01:12;101147.53;;;23.21;53.73
14838;BME280;7510;59.296;18.106;2022-10-31T13:06:23;101142.19;;;22.97;54.51
14838;BME280;7510;59.296;18.106;2022-10-31T13:09:01;101093.69;;;23.23;53.12
14838;BME280;7510;59.296;18.106;2022-10-31T13:11:32;101145.75;;;23.78;52.34
14838;BME280;7510;59.296;18.106;2022-10-31T13:16:28;101144.94;;;23.64;52.42
14838;BME280;7510;59.296;18.106;2022-10-31T13:18:59;101145.75;;;23.78;52.33
14838;BME280;7510;59.296;18.106;2022-10-31T13:21:31;101147.38;;;23.79;51.71
14838;BME280;7510;59.296;18.106;2022-10-31T13:24:02;101146.78;;;23.56;52.47
14838;BME280;7510;59.296;18.106;2022-10-31T13:26:37;101145.34;;;23.71;51.65
14838;BME280;7510;59.296;18.106;2022-10-31T13:29:18;101157.81;;;23.56;52.61
14838;BME280;7510;59.296;18.106;2022-10-31T13:31:45;101151.31;;;23.52;52.84
14838;BME280;7510;59.296;18.106;2022-10-31T13:34:38;101155.63;;;23.31;53.07
14838;BME280;7510;59.296;18.106;2022-10-31T13:39:59;101146.00;;;23.42;53.18
14838;BME280;7510;59.296;18.106;2022-10-31T13:45:17;101152.34;;;23.29;53.33
14838;BME280;7510;59.296;18.106;2022-10-31T13:47:55;101160.31;;;23.17;53.62
14838;BME280;7510;59.296;18.106;2022-10-31T13:50:23;101145.84;;;22.93;53.98
14838;BME280;7510;59.296;18.106;2022-10-31T13:52:49;101152.06;;;22.85;54.74
14838;BME280;7510;59.296;18.106;2022-10-31T13:55:41;101149.47;;;23.07;54.10
14838;BME280;7510;59.296;18.106;2022-10-31T14:01:44;101143.94;;;22.93;54.85
14838;BME280;7510;59.296;18.106;2022-10-31T14:03:45;101159.78;;;22.56;56.11
14838;BME280;7510;59.296;18.106;2022-10-31T14:06:12;101143.28;;;22.96;54.76
14838;BME280;7510;59.296;18.106;2022-10-31T14:08:41;101148.03;;;23.23;54.14
14838;BME280;7510;59.296;18.106;2022-10-31T14:11:23;101159.38;;;23.08;54.28
14838;BME280;7510;59.296;18.106;2022-10-31T14:13:50;101131.47;;;22.96;54.31
14838;BME280;7510;59.296;18.106;2022-10-31T14:16:21;101157.53;;;23.17;54.23
14838;BME280;7510;59.296;18.106;2022-10-31T14:18:51;101145.44;;;22.86;55.02
14838;BME280;7510;59.296;18.106;2022-10-31T14:23:48;101144.78;;;23.21;54.46
14838;BME280;7510;59.296;18.106;2022-10-31T14:28:51;101131.69;;;23.40;53.60
14838;BME280;7510;59.296;18.106;2022-10-31T14:31:41;101145.97;;;22.88;55.07
14838;BME280;7510;59.296;18.106;2022-10-31T14:40:05;101141.38;;;23.51;53.42
14838;BME280;7510;59.296;18.106;2022-10-31T14:45:17;101129.44;;;23.15;54.18
14838;BME280;7510;59.296;18.106;2022-10-31T14:50:52;101134.00;;;22.79;55.15
14838;BME280;7510;59.296;18.106;2022-10-31T14:53:51;101122.88;;;22.84;54.54
14838;BME280;7510;59.296;18.106;2022-10-31T14:56:30;101126.19;;;22.54;55.86
14838;BME280;7510;59.296;18.106;2022-10-31T14:59:04;101125.06;;;22.23;57.01
14838;BME280;7510;59.296;18.106;2022-10-31T15:01:36;101119.50;;;21.91;57.88
14838;BME280;7510;59.296;18.106;2022-10-31T15:06:42;101124.72;;;21.75;58.17
14838;BME280;7510;59.296;18.106;2022-10-31T15:11:50;101088.69;;;21.53;58.27
14838;BME280;7510;59.296;18.106;2022-10-31T15:14:29;101123.84;;;21.97;57.36
14838;BME280;7510;59.296;18.106;2022-10-31T15:16:57;101125.53;;;22.12;56.78
14838;BME280;7510;59.296;18.106;2022-10-31T15:19:26;101116.53;;;22.06;56.80
14838;BME280;7510;59.296;18.106;2022-10-31T15:21:54;101111.13;;;21.65;57.98
14838;BME280;7510;59.296;18.106;2022-10-31T15:24:20;101105.63;;;21.23;59.40
14838;BME280;7510;59.296;18.106;2022-10-31T15:26:49;101121.19;;;21.51;58.57
14838;BME280;7510;59.296;18.106;2022-10-31T15:29:20;101121.63;;;21.39;59.05
14838;BME280;7510;59.296;18.106;2022-10-31T15:34:42;101124.44;;;21.58;57.98
14838;BME280;7510;59.296;18.106;2022-10-31T15:37:14;101129.13;;;21.34;58.55